sensor_id;sensor_type;location;lat;lon;timestamp;temperature;humidity
45066;DHT22;30830;53.704;10.004;2023-05-16T00:01:55;10.30;99.90
45066;DHT22;30830;53.704;10.004;2023-05-16T00:04:21;10.30;99.90
45066;DHT22;30830;53.704;10.004;2023-05-16T00:06:48;10.20;99.90
45066;DHT22;30830;53.704;10.004;2023-05-16T00:09:13;10.30;99.90
45066;DHT22;30830;53.704;10.004;2023-05-16T00:11:41;10.30;99.90
45066;DHT22;30830;53.704;10.004;2023-05-16T00:14:07;10.30;99.90
45066;DHT22;30830;53.704;10.004;2023-05-16T00:16:33;10.30;99.90
45066;DHT22;30830;53.704;10.004;2023-05-16T00:19:01;10.30;99.90
45066;DHT22;30830;53.704;10.004;2023-05-16T00:21:27;10.30;99.90
45066;DHT22;30830;53.704;10.004;2023-05-16T00:23:52;10.30;99.90
45066;DHT22;30830;53.704;10.004;2023-05-16T00:26:18;10.30;99.90
45066;DHT22;30830;53.704;10.004;2023-05-16T00:28:44;10.30;99.90
45066;DHT22;30830;53.704;10.004;2023-05-16T00:31:09;10.30;99.90
45066;DHT22;30830;53.704;10.004;2023-05-16T00:33:35;10.30;99.90
45066;DHT22;30830;53.704;10.004;2023-05-16T00:36:00;10.20;99.90
45066;DHT22;30830;53.704;10.004;2023-05-16T00:38:26;10.20;99.90
45066;DHT22;30830;53.704;10.004;2023-05-16T00:40:52;10.20;99.90
45066;DHT22;30830;53.704;10.004;2023-05-16T00:43:17;10.20;99.90
45066;DHT22;30830;53.704;10.004;2023-05-16T00:45:44;10.20;99.90
45066;DHT22;30830;53.704;10.004;2023-05-16T00:48:11;10.20;99.90
45066;DHT22;30830;53.704;10.004;2023-05-16T00:50:37;10.30;99.90
45066;DHT22;30830;53.704;10.004;2023-05-16T00:53:03;10.20;99.90
45066;DHT22;30830;53.704;10.004;2023-05-16T00:55:29;10.30;99.90
45066;DHT22;30830;53.704;10.004;2023-05-16T00:57:57;10.40;99.90
45066;DHT22;30830;53.704;10.004;2023-05-16T01:00:23;10.30;99.90
45066;DHT22;30830;53.704;10.004;2023-05-16T01:02:49;10.30;99.90
45066;DHT22;30830;53.704;10.004;2023-05-16T01:05:20;10.40;99.90
45066;DHT22;30830;53.704;10.004;2023-05-16T01:07:46;10.40;99.90
45066;DHT22;30830;53.704;10.004;2023-05-16T01:10:11;10.40;99.90
45066;DHT22;30830;53.704;10.004;2023-05-16T01:13:08;10.40;99.90
45066;DHT22;30830;53.704;10.004;2023-05-16T01:15:48;10.40;99.90
45066;DHT22;30830;53.704;10.004;2023-05-16T01:21:04;10.50;99.90
45066;DHT22;30830;53.704;10.004;2023-05-16T01:26:22;10.50;99.90
45066;DHT22;30830;53.704;10.004;2023-05-16T01:28:49;10.50;99.90
45066;DHT22;30830;53.704;10.004;2023-05-16T01:31:15;10.50;99.90
45066;DHT22;30830;53.704;10.004;2023-05-16T01:33:41;10.50;99.90
45066;DHT22;30830;53.704;10.004;2023-05-16T01:36:32;10.50;99.90
45066;DHT22;30830;53.704;10.004;2023-05-16T01:46:57;10.50;99.90
45066;DHT22;30830;53.704;10.004;2023-05-16T01:49:28;10.50;99.90
45066;DHT22;30830;53.704;10.004;2023-05-16T01:52:00;10.40;99.90
45066;DHT22;30830;53.704;10.004;2023-05-16T01:54:30;10.40;99.90
45066;DHT22;30830;53.704;10.004;2023-05-16T01:56:56;10.30;99.90
45066;DHT22;30830;53.704;10.004;2023-05-16T01:59:23;10.30;99.90
45066;DHT22;30830;53.704;10.004;2023-05-16T02:01:52;10.30;99.90
45066;DHT22;30830;53.704;10.004;2023-05-16T02:04:18;10.30;99.90
45066;DHT22;30830;53.704;10.004;2023-05-16T02:06:44;10.30;99.90
45066;DHT22;30830;53.704;10.004;2023-05-16T02:09:10;10.30;99.90
45066;DHT22;30830;53.704;10.004;2023-05-16T02:11:36;10.20;99.90
45066;DHT22;30830;53.704;10.004;2023-05-16T02:14:01;10.30;99.90
45066;DHT22;30830;53.704;10.004;2023-05-16T02:16:29;10.20;99.90
45066;DHT22;30830;53.704;10.004;2023-05-16T02:18:55;10.20;99.90
45066;DHT22;30830;53.704;10.004;2023-05-16T02:21:21;10.20;99.90
45066;DHT22;30830;53.704;10.004;2023-05-16T02:23:46;10.20;99.90
45066;DHT22;30830;53.704;10.004;2023-05-16T02:26:12;10.20;99.90
45066;DHT22;30830;53.704;10.004;2023-05-16T02:28:37;10.20;99.90
45066;DHT22;30830;53.704;10.004;2023-05-16T02:31:03;10.20;99.90
45066;DHT22;30830;53.704;10.004;2023-05-16T02:33:29;10.20;99.90
45066;DHT22;30830;53.704;10.004;2023-05-16T02:35:54;10.10;99.90
45066;DHT22;30830;53.704;10.004;2023-05-16T02:38:20;10.10;99.90
45066;DHT22;30830;53.704;10.004;2023-05-16T02:40:47;10.10;99.90
45066;DHT22;30830;53.704;10.004;2023-05-16T02:43:12;10.10;99.90
45066;DHT22;30830;53.704;10.004;2023-05-16T02:45:38;10.10;99.90
45066;DHT22;30830;53.704;10.004;2023-05-16T02:48:04;10.10;99.90
45066;DHT22;30830;53.704;10.004;2023-05-16T02:50:29;10.10;99.90
45066;DHT22;30830;53.704;10.004;2023-05-16T02:52:56;10.10;99.90
45066;DHT22;30830;53.704;10.004;2023-05-16T02:55:27;10.10;99.90
45066;DHT22;30830;53.704;10.004;2023-05-16T02:57:53;10.10;99.90
45066;DHT22;30830;53.704;10.004;2023-05-16T03:00:19;10.10;99.90
45066;DHT22;30830;53.704;10.004;2023-05-16T03:02:45;10.00;99.90
45066;DHT22;30830;53.704;10.004;2023-05-16T03:05:11;10.10;99.90
45066;DHT22;30830;53.704;10.004;2023-05-16T03:07:37;10.00;99.90
45066;DHT22;30830;53.704;10.004;2023-05-16T03:10:03;10.10;99.90
45066;DHT22;30830;53.704;10.004;2023-05-16T03:12:29;10.10;99.90
45066;DHT22;30830;53.704;10.004;2023-05-16T03:14:54;10.10;99.90
45066;DHT22;30830;53.704;10.004;2023-05-16T03:17:20;10.10;99.90
45066;DHT22;30830;53.704;10.004;2023-05-16T03:19:46;10.00;99.90
45066;DHT22;30830;53.704;10.004;2023-05-16T03:22:11;10.00;99.90
45066;DHT22;30830;53.704;10.004;2023-05-16T03:24:37;10.00;99.90
45066;DHT22;30830;53.704;10.004;2023-05-16T03:27:03;10.00;99.90
45066;DHT22;30830;53.704;10.004;2023-05-16T03:29:29;10.00;99.90
45066;DHT22;30830;53.704;10.004;2023-05-16T03:31:55;10.00;99.90
45066;DHT22;30830;53.704;10.004;2023-05-16T03:34:21;9.90;99.90
45066;DHT22;30830;53.704;10.004;2023-05-16T03:36:48;9.90;99.90
45066;DHT22;30830;53.704;10.004;2023-05-16T03:39:15;9.90;99.90
45066;DHT22;30830;53.704;10.004;2023-05-16T03:41:40;9.80;99.90
45066;DHT22;30830;53.704;10.004;2023-05-16T03:44:06;9.80;99.90
45066;DHT22;30830;53.704;10.004;2023-05-16T03:46:32;9.80;99.90
45066;DHT22;30830;53.704;10.004;2023-05-16T03:48:57;9.80;99.90
45066;DHT22;30830;53.704;10.004;2023-05-16T03:51:23;9.80;99.90
45066;DHT22;30830;53.704;10.004;2023-05-16T03:53:49;9.80;99.90
45066;DHT22;30830;53.704;10.004;2023-05-16T03:56:14;9.80;99.90
45066;DHT22;30830;53.704;10.004;2023-05-16T03:58:40;9.80;99.90
45066;DHT22;30830;53.704;10.004;2023-05-16T04:01:05;9.80;99.90
45066;DHT22;30830;53.704;10.004;2023-05-16T04:03:31;9.80;99.90
45066;DHT22;30830;53.704;10.004;2023-05-16T04:05:58;9.80;99.90
45066;DHT22;30830;53.704;10.004;2023-05-16T04:08:24;9.80;99.90
45066;DHT22;30830;53.704;10.004;2023-05-16T04:10:50;9.80;99.90
45066;DHT22;30830;53.704;10.004;2023-05-16T04:13:16;9.80;99.90
45066;DHT22;30830;53.704;10.004;2023-05-16T04:15:41;9.80;99.90
45066;DHT22;30830;53.704;10.004;2023-05-16T04:18:08;9.80;99.90
45066;DHT22;30830;53.704;10.004;2023-05-16T04:20:33;9.80;99.90
45066;DHT22;30830;53.704;10.004;2023-05-16T04:23:00;9.80;99.90
45066;DHT22;30830;53.704;10.004;2023-05-16T04:25:25;9.70;99.90
45066;DHT22;30830;53.704;10.004;2023-05-16T04:27:51;9.80;99.90
45066;DHT22;30830;53.704;10.004;2023-05-16T04:30:17;9.70;99.90
45066;DHT22;30830;53.704;10.004;2023-05-16T04:32:42;9.70;99.90
45066;DHT22;30830;53.704;10.004;2023-05-16T04:35:08;9.80;99.90
45066;DHT22;30830;53.704;10.004;2023-05-16T04:37:34;9.70;99.90
45066;DHT22;30830;53.704;10.004;2023-05-16T04:40:00;9.80;99.90
45066;DHT22;30830;53.704;10.004;2023-05-16T04:42:26;9.80;99.90
45066;DHT22;30830;53.704;10.004;2023-05-16T04:44:51;9.70;99.90
45066;DHT22;30830;53.704;10.004;2023-05-16T04:47:17;9.80;99.90
45066;DHT22;30830;53.704;10.004;2023-05-16T04:49:43;9.70;99.90
45066;DHT22;30830;53.704;10.004;2023-05-16T04:52:09;9.80;99.90
45066;DHT22;30830;53.704;10.004;2023-05-16T04:54:37;9.70;99.90
45066;DHT22;30830;53.704;10.004;2023-05-16T04:57:03;9.70;99.90
45066;DHT22;30830;53.704;10.004;2023-05-16T04:59:29;9.70;99.90
45066;DHT22;30830;53.704;10.004;2023-05-16T05:01:54;9.80;99.90
45066;DHT22;30830;53.704;10.004;2023-05-16T05:04:20;9.70;99.90
45066;DHT22;30830;53.704;10.004;2023-05-16T05:06:47;9.70;99.90
45066;DHT22;30830;53.704;10.004;2023-05-16T05:09:12;9.70;99.90
45066;DHT22;30830;53.704;10.004;2023-05-16T05:11:38;9.60;99.90
45066;DHT22;30830;53.704;10.004;2023-05-16T05:14:03;9.60;99.90
45066;DHT22;30830;53.704;10.004;2023-05-16T05:16:29;9.70;99.90
45066;DHT22;30830;53.704;10.004;2023-05-16T05:18:55;9.60;99.90
45066;DHT22;30830;53.704;10.004;2023-05-16T05:21:20;9.70;99.90
45066;DHT22;30830;53.704;10.004;2023-05-16T05:23:48;9.70;99.90
45066;DHT22;30830;53.704;10.004;2023-05-16T05:26:14;9.70;99.90
45066;DHT22;30830;53.704;10.004;2023-05-16T05:28:39;9.70;99.90
45066;DHT22;30830;53.704;10.004;2023-05-16T05:31:05;9.70;99.90
45066;DHT22;30830;53.704;10.004;2023-05-16T05:33:32;9.80;99.90
45066;DHT22;30830;53.704;10.004;2023-05-16T05:35:58;9.80;99.90
45066;DHT22;30830;53.704;10.004;2023-05-16T05:38:24;9.80;99.90
45066;DHT22;30830;53.704;10.004;2023-05-16T05:40:49;9.90;99.90
45066;DHT22;30830;53.704;10.004;2023-05-16T05:43:15;10.00;99.90
45066;DHT22;30830;53.704;10.004;2023-05-16T05:45:41;10.20;99.90
45066;DHT22;30830;53.704;10.004;2023-05-16T05:48:07;10.20;99.90
45066;DHT22;30830;53.704;10.004;2023-05-16T05:50:33;10.20;99.90
45066;DHT22;30830;53.704;10.004;2023-05-16T05:52:58;10.20;99.90
45066;DHT22;30830;53.704;10.004;2023-05-16T05:55:24;10.20;99.90
45066;DHT22;30830;53.704;10.004;2023-05-16T05:57:50;10.20;99.90
45066;DHT22;30830;53.704;10.004;2023-05-16T06:00:16;10.20;99.90
45066;DHT22;30830;53.704;10.004;2023-05-16T06:02:42;10.20;99.90
45066;DHT22;30830;53.704;10.004;2023-05-16T06:05:08;10.30;99.90
45066;DHT22;30830;53.704;10.004;2023-05-16T06:07:33;10.40;99.90
45066;DHT22;30830;53.704;10.004;2023-05-16T06:09:59;10.50;99.90
45066;DHT22;30830;53.704;10.004;2023-05-16T06:12:29;10.50;99.90
45066;DHT22;30830;53.704;10.004;2023-05-16T06:14:54;10.60;99.90
45066;DHT22;30830;53.704;10.004;2023-05-16T06:17:20;10.80;99.90
45066;DHT22;30830;53.704;10.004;2023-05-16T06:19:46;11.00;99.90
45066;DHT22;30830;53.704;10.004;2023-05-16T06:22:12;11.20;99.90
45066;DHT22;30830;53.704;10.004;2023-05-16T06:24:37;11.20;99.90
45066;DHT22;30830;53.704;10.004;2023-05-16T06:27:03;11.30;99.90
45066;DHT22;30830;53.704;10.004;2023-05-16T06:29:29;11.30;99.90
45066;DHT22;30830;53.704;10.004;2023-05-16T06:31:54;11.20;99.90
45066;DHT22;30830;53.704;10.004;2023-05-16T06:34:20;11.20;99.90
45066;DHT22;30830;53.704;10.004;2023-05-16T06:36:51;11.20;99.90
45066;DHT22;30830;53.704;10.004;2023-05-16T06:39:17;11.10;99.90
45066;DHT22;30830;53.704;10.004;2023-05-16T06:41:42;11.20;99.90
45066;DHT22;30830;53.704;10.004;2023-05-16T06:44:08;11.40;99.90
45066;DHT22;30830;53.704;10.004;2023-05-16T06:46:33;11.50;99.90
45066;DHT22;30830;53.704;10.004;2023-05-16T06:48:59;11.40;99.90
45066;DHT22;30830;53.704;10.004;2023-05-16T06:51:25;11.30;99.90
45066;DHT22;30830;53.704;10.004;2023-05-16T06:53:50;11.20;99.90
45066;DHT22;30830;53.704;10.004;2023-05-16T06:56:16;11.00;99.90
45066;DHT22;30830;53.704;10.004;2023-05-16T06:58:42;11.00;99.90
45066;DHT22;30830;53.704;10.004;2023-05-16T07:01:07;11.00;99.90
45066;DHT22;30830;53.704;10.004;2023-05-16T07:03:33;11.10;99.90
45066;DHT22;30830;53.704;10.004;2023-05-16T07:05:58;11.10;99.90
45066;DHT22;30830;53.704;10.004;2023-05-16T07:08:24;11.10;99.90
45066;DHT22;30830;53.704;10.004;2023-05-16T07:10:50;11.00;99.90
45066;DHT22;30830;53.704;10.004;2023-05-16T07:13:15;11.00;99.90
45066;DHT22;30830;53.704;10.004;2023-05-16T07:15:41;11.10;99.90
45066;DHT22;30830;53.704;10.004;2023-05-16T07:18:07;11.00;99.90
45066;DHT22;30830;53.704;10.004;2023-05-16T07:20:32;11.10;99.90
45066;DHT22;30830;53.704;10.004;2023-05-16T07:22:58;11.40;99.90
45066;DHT22;30830;53.704;10.004;2023-05-16T07:25:24;11.60;99.90
45066;DHT22;30830;53.704;10.004;2023-05-16T07:27:50;12.10;99.90
45066;DHT22;30830;53.704;10.004;2023-05-16T07:30:16;12.30;99.90
45066;DHT22;30830;53.704;10.004;2023-05-16T07:32:42;12.20;99.90
45066;DHT22;30830;53.704;10.004;2023-05-16T07:35:08;12.10;99.90
45066;DHT22;30830;53.704;10.004;2023-05-16T07:37:34;12.00;99.90
45066;DHT22;30830;53.704;10.004;2023-05-16T07:40:00;11.90;99.90
45066;DHT22;30830;53.704;10.004;2023-05-16T07:42:26;12.20;99.90
45066;DHT22;30830;53.704;10.004;2023-05-16T07:44:51;12.50;99.90
45066;DHT22;30830;53.704;10.004;2023-05-16T07:47:17;12.80;99.90
45066;DHT22;30830;53.704;10.004;2023-05-16T07:49:42;13.10;99.90
45066;DHT22;30830;53.704;10.004;2023-05-16T07:52:08;13.40;99.90
45066;DHT22;30830;53.704;10.004;2023-05-16T07:54:34;13.40;99.90
45066;DHT22;30830;53.704;10.004;2023-05-16T07:57:00;13.20;98.10
45066;DHT22;30830;53.704;10.004;2023-05-16T07:59:27;13.40;99.40
45066;DHT22;30830;53.704;10.004;2023-05-16T08:01:53;13.70;97.40
45066;DHT22;30830;53.704;10.004;2023-05-16T08:04:19;13.50;96.40
45066;DHT22;30830;53.704;10.004;2023-05-16T08:06:45;13.60;97.10
45066;DHT22;30830;53.704;10.004;2023-05-16T08:09:10;13.90;96.90
45066;DHT22;30830;53.704;10.004;2023-05-16T08:11:36;14.30;96.30
45066;DHT22;30830;53.704;10.004;2023-05-16T08:14:04;14.40;94.70
45066;DHT22;30830;53.704;10.004;2023-05-16T08:16:30;14.10;93.70
45066;DHT22;30830;53.704;10.004;2023-05-16T08:18:55;14.30;95.20
45066;DHT22;30830;53.704;10.004;2023-05-16T08:21:21;14.70;95.70
45066;DHT22;30830;53.704;10.004;2023-05-16T08:23:46;15.00;95.60
45066;DHT22;30830;53.704;10.004;2023-05-16T08:26:12;15.20;94.10
45066;DHT22;30830;53.704;10.004;2023-05-16T08:28:37;15.40;94.10
45066;DHT22;30830;53.704;10.004;2023-05-16T08:31:03;15.50;93.80
45066;DHT22;30830;53.704;10.004;2023-05-16T08:33:29;15.20;91.80
45066;DHT22;30830;53.704;10.004;2023-05-16T08:35:54;15.20;92.40
45066;DHT22;30830;53.704;10.004;2023-05-16T08:38:22;15.10;91.80
45066;DHT22;30830;53.704;10.004;2023-05-16T08:40:48;15.30;92.60
45066;DHT22;30830;53.704;10.004;2023-05-16T08:43:14;15.30;91.50
45066;DHT22;30830;53.704;10.004;2023-05-16T08:45:40;14.90;90.70
45066;DHT22;30830;53.704;10.004;2023-05-16T08:48:06;14.20;91.60
45066;DHT22;30830;53.704;10.004;2023-05-16T08:50:32;14.30;92.50
45066;DHT22;30830;53.704;10.004;2023-05-16T08:53:00;14.50;91.80
45066;DHT22;30830;53.704;10.004;2023-05-16T08:55:30;14.70;93.40
45066;DHT22;30830;53.704;10.004;2023-05-16T08:57:56;14.90;92.20
45066;DHT22;30830;53.704;10.004;2023-05-16T09:00:22;15.10;92.60
45066;DHT22;30830;53.704;10.004;2023-05-16T09:02:48;15.00;92.60
45066;DHT22;30830;53.704;10.004;2023-05-16T09:05:15;14.90;93.50
45066;DHT22;30830;53.704;10.004;2023-05-16T09:07:42;14.70;93.10
45066;DHT22;30830;53.704;10.004;2023-05-16T09:10:08;14.30;94.00
45066;DHT22;30830;53.704;10.004;2023-05-16T09:12:35;14.00;93.80
45066;DHT22;30830;53.704;10.004;2023-05-16T09:15:05;13.90;91.90
45066;DHT22;30830;53.704;10.004;2023-05-16T09:17:43;14.00;92.80
45066;DHT22;30830;53.704;10.004;2023-05-16T09:20:18;14.30;93.60
45066;DHT22;30830;53.704;10.004;2023-05-16T09:22:58;14.60;93.30
45066;DHT22;30830;53.704;10.004;2023-05-16T09:25:27;14.80;92.60
45066;DHT22;30830;53.704;10.004;2023-05-16T09:27:54;14.90;93.00
45066;DHT22;30830;53.704;10.004;2023-05-16T09:30:22;14.90;93.20
45066;DHT22;30830;53.704;10.004;2023-05-16T09:32:51;14.80;93.90
45066;DHT22;30830;53.704;10.004;2023-05-16T09:35:21;15.10;94.30
45066;DHT22;30830;53.704;10.004;2023-05-16T09:37:49;15.40;93.10
45066;DHT22;30830;53.704;10.004;2023-05-16T09:40:22;15.20;92.50
45066;DHT22;30830;53.704;10.004;2023-05-16T09:43:03;15.10;91.00
45066;DHT22;30830;53.704;10.004;2023-05-16T09:45:30;15.10;92.00
45066;DHT22;30830;53.704;10.004;2023-05-16T09:48:11;15.20;92.10
45066;DHT22;30830;53.704;10.004;2023-05-16T09:50:40;15.40;91.30
45066;DHT22;30830;53.704;10.004;2023-05-16T09:53:12;15.60;91.40
45066;DHT22;30830;53.704;10.004;2023-05-16T09:55:38;15.60;90.90
45066;DHT22;30830;53.704;10.004;2023-05-16T09:58:03;15.80;90.60
45066;DHT22;30830;53.704;10.004;2023-05-16T10:00:30;15.70;90.40
45066;DHT22;30830;53.704;10.004;2023-05-16T10:02:57;15.10;90.40
45066;DHT22;30830;53.704;10.004;2023-05-16T10:05:26;14.90;90.60
45066;DHT22;30830;53.704;10.004;2023-05-16T10:07:55;14.90;90.60
45066;DHT22;30830;53.704;10.004;2023-05-16T10:10:22;14.80;89.40
45066;DHT22;30830;53.704;10.004;2023-05-16T10:12:49;14.80;89.30
45066;DHT22;30830;53.704;10.004;2023-05-16T10:15:16;14.80;90.40
45066;DHT22;30830;53.704;10.004;2023-05-16T10:17:42;14.90;90.40
45066;DHT22;30830;53.704;10.004;2023-05-16T10:20:11;14.80;88.70
45066;DHT22;30830;53.704;10.004;2023-05-16T10:22:41;14.60;90.50
45066;DHT22;30830;53.704;10.004;2023-05-16T10:27:53;14.20;92.30
45066;DHT22;30830;53.704;10.004;2023-05-16T10:30:20;14.30;93.20
45066;DHT22;30830;53.704;10.004;2023-05-16T10:32:46;14.40;93.90
45066;DHT22;30830;53.704;10.004;2023-05-16T10:35:12;14.60;93.50
45066;DHT22;30830;53.704;10.004;2023-05-16T10:37:38;14.80;92.20
45066;DHT22;30830;53.704;10.004;2023-05-16T10:40:05;14.90;91.40
45066;DHT22;30830;53.704;10.004;2023-05-16T10:42:32;15.00;92.10
45066;DHT22;30830;53.704;10.004;2023-05-16T10:45:17;15.00;91.00
45066;DHT22;30830;53.704;10.004;2023-05-16T10:50:49;14.70;89.70
45066;DHT22;30830;53.704;10.004;2023-05-16T10:53:33;14.40;90.10
45066;DHT22;30830;53.704;10.004;2023-05-16T11:17:19;13.80;93.60
45066;DHT22;30830;53.704;10.004;2023-05-16T11:19:56;13.80;95.20
45066;DHT22;30830;53.704;10.004;2023-05-16T11:22:31;14.00;93.60
45066;DHT22;30830;53.704;10.004;2023-05-16T11:27:28;14.00;93.20
45066;DHT22;30830;53.704;10.004;2023-05-16T11:29:57;14.00;93.70
45066;DHT22;30830;53.704;10.004;2023-05-16T11:32:24;14.20;93.90
45066;DHT22;30830;53.704;10.004;2023-05-16T11:34:50;14.30;94.20
45066;DHT22;30830;53.704;10.004;2023-05-16T11:37:17;14.40;93.60
45066;DHT22;30830;53.704;10.004;2023-05-16T11:39:44;14.50;91.10
45066;DHT22;30830;53.704;10.004;2023-05-16T11:42:10;14.50;89.60
45066;DHT22;30830;53.704;10.004;2023-05-16T11:44:38;14.30;90.00
45066;DHT22;30830;53.704;10.004;2023-05-16T11:47:05;14.10;89.60
45066;DHT22;30830;53.704;10.004;2023-05-16T11:49:30;14.00;91.00
45066;DHT22;30830;53.704;10.004;2023-05-16T11:51:56;13.80;91.50
45066;DHT22;30830;53.704;10.004;2023-05-16T11:54:22;13.70;93.40
45066;DHT22;30830;53.704;10.004;2023-05-16T11:56:49;13.80;93.40
45066;DHT22;30830;53.704;10.004;2023-05-16T11:59:16;14.00;93.30
45066;DHT22;30830;53.704;10.004;2023-05-16T12:01:42;14.10;93.70
45066;DHT22;30830;53.704;10.004;2023-05-16T12:04:12;14.20;93.30
45066;DHT22;30830;53.704;10.004;2023-05-16T12:06:38;14.40;92.00
45066;DHT22;30830;53.704;10.004;2023-05-16T12:09:05;14.40;92.10
45066;DHT22;30830;53.704;10.004;2023-05-16T12:11:39;14.40;90.20
45066;DHT22;30830;53.704;10.004;2023-05-16T12:14:06;14.40;90.30
45066;DHT22;30830;53.704;10.004;2023-05-16T12:16:32;14.30;91.10
45066;DHT22;30830;53.704;10.004;2023-05-16T12:18:59;14.20;92.30
45066;DHT22;30830;53.704;10.004;2023-05-16T12:21:27;14.30;93.00
45066;DHT22;30830;53.704;10.004;2023-05-16T12:23:54;14.40;92.70
45066;DHT22;30830;53.704;10.004;2023-05-16T12:26:30;14.20;93.00
45066;DHT22;30830;53.704;10.004;2023-05-16T12:29:00;14.20;93.50
45066;DHT22;30830;53.704;10.004;2023-05-16T12:31:28;14.10;93.40
45066;DHT22;30830;53.704;10.004;2023-05-16T12:33:57;14.10;94.30
45066;DHT22;30830;53.704;10.004;2023-05-16T12:36:24;14.20;95.20
45066;DHT22;30830;53.704;10.004;2023-05-16T12:38:51;14.20;94.60
45066;DHT22;30830;53.704;10.004;2023-05-16T12:41:21;14.20;94.20
45066;DHT22;30830;53.704;10.004;2023-05-16T12:43:50;14.10;95.80
45066;DHT22;30830;53.704;10.004;2023-05-16T12:46:18;14.20;95.90
45066;DHT22;30830;53.704;10.004;2023-05-16T12:48:44;14.20;96.30
45066;DHT22;30830;53.704;10.004;2023-05-16T12:51:14;13.90;95.80
45066;DHT22;30830;53.704;10.004;2023-05-16T12:53:45;13.20;98.60
45066;DHT22;30830;53.704;10.004;2023-05-16T12:56:12;13.00;99.80
45066;DHT22;30830;53.704;10.004;2023-05-16T12:58:38;12.90;99.90
45066;DHT22;30830;53.704;10.004;2023-05-16T13:01:04;13.00;99.00
45066;DHT22;30830;53.704;10.004;2023-05-16T13:03:31;13.20;98.70
45066;DHT22;30830;53.704;10.004;2023-05-16T13:05:57;13.40;97.30
45066;DHT22;30830;53.704;10.004;2023-05-16T13:08:23;13.50;96.20
45066;DHT22;30830;53.704;10.004;2023-05-16T13:10:49;13.60;93.50
45066;DHT22;30830;53.704;10.004;2023-05-16T13:13:14;13.80;93.20
45066;DHT22;30830;53.704;10.004;2023-05-16T13:15:41;13.90;92.60
45066;DHT22;30830;53.704;10.004;2023-05-16T13:18:08;13.90;92.10
45066;DHT22;30830;53.704;10.004;2023-05-16T13:20:34;13.80;91.90
45066;DHT22;30830;53.704;10.004;2023-05-16T13:22:59;13.90;92.60
45066;DHT22;30830;53.704;10.004;2023-05-16T13:25:25;14.00;93.50
45066;DHT22;30830;53.704;10.004;2023-05-16T13:27:50;14.00;93.70
45066;DHT22;30830;53.704;10.004;2023-05-16T13:30:16;13.80;94.70
45066;DHT22;30830;53.704;10.004;2023-05-16T13:32:41;13.80;94.70
45066;DHT22;30830;53.704;10.004;2023-05-16T13:35:07;13.80;93.40
45066;DHT22;30830;53.704;10.004;2023-05-16T13:37:34;13.90;93.40
45066;DHT22;30830;53.704;10.004;2023-05-16T13:40:00;13.90;92.90
45066;DHT22;30830;53.704;10.004;2023-05-16T13:42:26;13.90;93.70
45066;DHT22;30830;53.704;10.004;2023-05-16T13:44:51;13.90;95.20
45066;DHT22;30830;53.704;10.004;2023-05-16T13:47:17;13.90;94.10
45066;DHT22;30830;53.704;10.004;2023-05-16T13:49:43;13.90;94.50
45066;DHT22;30830;53.704;10.004;2023-05-16T13:52:08;14.00;95.20
45066;DHT22;30830;53.704;10.004;2023-05-16T13:54:34;14.00;96.00
45066;DHT22;30830;53.704;10.004;2023-05-16T13:56:59;14.10;96.30
45066;DHT22;30830;53.704;10.004;2023-05-16T13:59:26;14.10;94.90
45066;DHT22;30830;53.704;10.004;2023-05-16T14:01:52;14.20;96.00
45066;DHT22;30830;53.704;10.004;2023-05-16T14:04:17;14.40;95.40
45066;DHT22;30830;53.704;10.004;2023-05-16T14:06:43;14.70;94.30
45066;DHT22;30830;53.704;10.004;2023-05-16T14:09:08;14.70;95.10
45066;DHT22;30830;53.704;10.004;2023-05-16T14:11:35;14.70;93.40
45066;DHT22;30830;53.704;10.004;2023-05-16T14:14:00;14.50;95.10
45066;DHT22;30830;53.704;10.004;2023-05-16T14:16:26;14.40;95.10
45066;DHT22;30830;53.704;10.004;2023-05-16T14:18:51;14.40;95.20
45066;DHT22;30830;53.704;10.004;2023-05-16T14:21:17;14.20;96.00
45066;DHT22;30830;53.704;10.004;2023-05-16T14:23:42;14.10;95.10
45066;DHT22;30830;53.704;10.004;2023-05-16T14:26:08;13.90;93.60
45066;DHT22;30830;53.704;10.004;2023-05-16T14:28:34;13.40;93.20
45066;DHT22;30830;53.704;10.004;2023-05-16T14:31:00;13.10;94.20
45066;DHT22;30830;53.704;10.004;2023-05-16T14:33:26;12.90;95.60
45066;DHT22;30830;53.704;10.004;2023-05-16T14:35:52;12.80;95.20
45066;DHT22;30830;53.704;10.004;2023-05-16T14:38:18;13.00;95.40
45066;DHT22;30830;53.704;10.004;2023-05-16T14:40:44;13.20;94.60
45066;DHT22;30830;53.704;10.004;2023-05-16T14:43:09;13.30;94.50
45066;DHT22;30830;53.704;10.004;2023-05-16T14:45:36;13.40;94.00
45066;DHT22;30830;53.704;10.004;2023-05-16T14:48:02;13.50;94.80
45066;DHT22;30830;53.704;10.004;2023-05-16T14:50:28;13.60;94.70
45066;DHT22;30830;53.704;10.004;2023-05-16T14:52:53;13.70;93.50
45066;DHT22;30830;53.704;10.004;2023-05-16T14:55:19;13.80;93.50
45066;DHT22;30830;53.704;10.004;2023-05-16T14:57:45;13.80;93.20
45066;DHT22;30830;53.704;10.004;2023-05-16T15:00:13;14.00;93.40
45066;DHT22;30830;53.704;10.004;2023-05-16T15:02:39;14.10;93.30
45066;DHT22;30830;53.704;10.004;2023-05-16T15:05:05;14.00;92.50
45066;DHT22;30830;53.704;10.004;2023-05-16T15:07:31;13.80;93.70
45066;DHT22;30830;53.704;10.004;2023-05-16T15:09:57;13.90;94.70
45066;DHT22;30830;53.704;10.004;2023-05-16T15:12:23;14.00;95.00
45066;DHT22;30830;53.704;10.004;2023-05-16T15:14:48;14.00;95.60
45066;DHT22;30830;53.704;10.004;2023-05-16T15:17:14;13.80;95.10
45066;DHT22;30830;53.704;10.004;2023-05-16T15:19:39;13.80;96.10
45066;DHT22;30830;53.704;10.004;2023-05-16T15:22:05;13.80;96.40
45066;DHT22;30830;53.704;10.004;2023-05-16T15:24:32;13.80;97.20
45066;DHT22;30830;53.704;10.004;2023-05-16T15:26:58;13.70;97.10
45066;DHT22;30830;53.704;10.004;2023-05-16T15:29:24;13.60;97.10
45066;DHT22;30830;53.704;10.004;2023-05-16T15:31:50;13.60;97.20
45066;DHT22;30830;53.704;10.004;2023-05-16T15:34:16;13.50;98.20
45066;DHT22;30830;53.704;10.004;2023-05-16T15:36:41;13.40;99.00
45066;DHT22;30830;53.704;10.004;2023-05-16T15:39:07;13.10;99.40
45066;DHT22;30830;53.704;10.004;2023-05-16T15:41:32;13.00;99.50
45066;DHT22;30830;53.704;10.004;2023-05-16T15:43:58;12.70;99.90
45066;DHT22;30830;53.704;10.004;2023-05-16T15:46:24;12.60;99.90
45066;DHT22;30830;53.704;10.004;2023-05-16T15:48:50;12.50;99.90
45066;DHT22;30830;53.704;10.004;2023-05-16T15:51:15;12.30;99.90
45066;DHT22;30830;53.704;10.004;2023-05-16T15:53:41;12.40;99.90
45066;DHT22;30830;53.704;10.004;2023-05-16T15:56:07;12.30;99.90
45066;DHT22;30830;53.704;10.004;2023-05-16T15:58:33;12.50;99.90